KBAM/BAM METAR and TAF weather

Enter ICAO airport designator
Station Type Date Time Source
KBAM METAR 2020/02/16 20:15 UTC NOAA

KBAM 162015Z AUTO 27010KT 10SM OVC048 08/02 A3011 RMK AO1


Station Type Date Time Source
KBAM Decoded METAR 2020/02/16 20:15 UTC NOAA

Station name not available
Feb 16, 2020 - 03:15 PM EST / 2020.02.16 2015 UTC
Wind: from the W (270 degrees) at 12 MPH (10 KT):0
Visibility: 10 mile(s):0
Sky conditions: overcast
Temperature: 46 F (8 C)
Dew Point: 35 F (2 C)
Relative Humidity: 65%
Pressure (altimeter): 30.11 in. Hg (1019 hPa)
ob: KBAM 162015Z AUTO 27010KT 10SM OVC048 08/02 A3011 RMK AO1
cycle: 20

Station Type Date Time Source
KBAM TAF 2020/02/16 20:51 UTC NOAA

TAF
AMD KBAM 161949Z 1620/1718 27012KT P6SM VCSH SCT035 BKN050
FM170100 VRB05KT P6SM SCT040 BKN250
FM171700 33010G20KT P6SM SCT040 BKN070

Example: see airport list